Time;durP1;ratioP1;P1;durP2;ratioP2;P2;SDS_P1;SDS_P2;PMS_P1;PMS_P2;Temp;Humidity;BMP_temperature;BMP_pressure;BME280_temperature;BME280_humidity;BME280_pressure;Samples;Min_cycle;Max_cycle;Signal;HPM_P1;HPM_P2
2023/01/15 00:01:26;;;;;;;2.17;1.30;;;12.30;99.90;;;;;;5021801;28;20522;-67
2023/01/15 00:03:53;;;;;;;1.67;1.07;;;12.40;99.90;;;;;;5016251;28;20772;-67
2023/01/15 00:06:20;;;;;;;1.60;1.23;;;12.40;99.90;;;;;;5013806;28;20475;-67
2023/01/15 00:08:46;;;;;;;1.80;1.10;;;12.40;99.90;;;;;;5013543;28;20909;-67
2023/01/15 00:11:12;;;;;;;1.57;1.20;;;12.40;99.90;;;;;;5014457;28;20509;-67
2023/01/15 00:13:38;;;;;;;1.60;1.00;;;12.40;99.90;;;;;;5019626;28;20280;-67
2023/01/15 00:16:06;;;;;;;1.73;1.13;;;12.50;99.90;;;;;;5010240;28;20204;-67
2023/01/15 00:18:31;;;;;;;1.77;1.30;;;12.50;99.90;;;;;;5017264;28;20898;-67
2023/01/15 00:21:01;;;;;;;5.00;1.20;;;12.50;99.90;;;;;;5012169;28;20431;-67
2023/01/15 00:29:01;;;;;;;2.30;1.40;;;12.50;99.90;;;;;;5015823;28;20462;-67
2023/01/15 00:31:28;;;;;;;4.90;1.50;;;12.50;99.90;;;;;;5010864;28;20451;-67
2023/01/15 00:33:53;;;;;;;1.70;1.13;;;12.50;99.90;;;;;;5017968;28;20219;-67
2023/01/15 00:36:19;;;;;;;1.60;1.10;;;12.50;99.90;;;;;;5011653;28;20459;-67
2023/01/15 00:38:44;;;;;;;1.73;1.23;;;12.40;99.90;;;;;;5013319;28;20304;-67
2023/01/15 00:41:10;;;;;;;2.43;1.17;;;12.50;99.90;;;;;;5016460;28;20208;-68
2023/01/15 00:43:36;;;;;;;1.70;1.10;;;12.50;99.90;;;;;;5019464;28;20200;-67
2023/01/15 00:46:03;;;;;;;1.80;1.20;;;12.50;99.90;;;;;;5018718;28;20546;-67
2023/01/15 00:48:29;;;;;;;1.60;1.10;;;12.50;99.90;;;;;;5015245;28;20231;-68
2023/01/15 00:50:54;;;;;;;2.20;1.10;;;12.60;99.90;;;;;;5009894;28;20562;-67
2023/01/15 00:53:20;;;;;;;1.63;1.10;;;12.60;99.90;;;;;;5009136;28;20276;-66
2023/01/15 00:55:45;;;;;;;1.80;1.10;;;12.60;99.90;;;;;;5015378;28;20211;-67
2023/01/15 00:58:11;;;;;;;3.50;1.07;;;12.60;99.90;;;;;;5014161;28;20243;-67
2023/01/15 01:00:37;;;;;;;1.60;1.10;;;12.50;99.90;;;;;;5021218;28;20263;-67
2023/01/15 01:03:02;;;;;;;2.33;1.03;;;12.40;99.90;;;;;;5008491;28;20534;-66
2023/01/15 01:05:28;;;;;;;1.93;1.10;;;12.40;99.90;;;;;;5011965;28;20196;-66
2023/01/15 01:07:53;;;;;;;1.47;0.97;;;12.30;99.90;;;;;;5009570;28;20201;-66
2023/01/15 01:10:19;;;;;;;1.90;1.10;;;12.20;99.90;;;;;;5015121;28;20188;-66
2023/01/15 01:12:44;;;;;;;1.57;1.10;;;12.10;99.90;;;;;;5012548;28;20189;-66
2023/01/15 01:15:10;;;;;;;3.17;1.30;;;12.10;99.90;;;;;;5016842;28;20783;-66
2023/01/15 01:17:39;;;;;;;1.50;1.00;;;12.10;99.90;;;;;;5013383;28;20746;-66
2023/01/15 01:20:05;;;;;;;1.60;1.20;;;12.10;99.90;;;;;;5013986;28;20184;-66
2023/01/15 01:22:32;;;;;;;1.83;1.30;;;12.10;99.90;;;;;;5015082;28;20435;-66
2023/01/15 01:24:58;;;;;;;1.50;1.00;;;12.10;99.90;;;;;;5014167;28;20447;-66
2023/01/15 01:27:23;;;;;;;1.50;1.03;;;12.10;99.90;;;;;;5012214;28;20882;-66
2023/01/15 01:29:49;;;;;;;1.40;1.00;;;12.10;99.90;;;;;;5014733;28;20290;-66
2023/01/15 01:32:14;;;;;;;1.80;1.10;;;12.10;99.90;;;;;;5010211;28;20619;-66
2023/01/15 01:34:40;;;;;;;5.10;2.47;;;12.10;99.90;;;;;;5009409;28;20245;-66
2023/01/15 01:37:05;;;;;;;1.60;1.10;;;12.10;99.90;;;;;;5018597;28;20208;-66
2023/01/15 01:39:31;;;;;;;2.33;1.00;;;12.10;99.90;;;;;;5014052;28;20572;-66
2023/01/15 01:41:57;;;;;;;3.20;1.20;;;12.10;99.90;;;;;;5017256;28;20189;-66
2023/01/15 01:44:31;;;;;;;1.83;1.00;;;12.10;99.90;;;;;;5016454;28;20191;-66
2023/01/15 01:47:00;;;;;;;1.80;1.10;;;12.10;99.90;;;;;;5015568;28;20223;-66
2023/01/15 01:49:26;;;;;;;1.60;1.10;;;12.10;99.90;;;;;;5017855;28;20810;-66
2023/01/15 01:52:00;;;;;;;1.50;1.00;;;12.10;99.90;;;;;;5015260;28;20898;-66
2023/01/15 01:54:29;;;;;;;1.90;1.10;;;12.20;99.90;;;;;;5015907;28;20462;-66
2023/01/15 01:56:55;;;;;;;1.67;1.00;;;12.10;99.90;;;;;;5009242;28;20526;-66
2023/01/15 01:59:22;;;;;;;2.00;1.30;;;12.10;99.90;;;;;;5013630;28;20535;-66
2023/01/15 02:01:48;;;;;;;1.93;1.10;;;12.10;99.90;;;;;;5018069;28;20953;-66
2023/01/15 02:04:15;;;;;;;1.50;1.00;;;12.10;99.90;;;;;;5012678;28;21245;-66
2023/01/15 02:06:42;;;;;;;3.60;1.10;;;12.10;99.90;;;;;;5016145;28;20470;-66
2023/01/15 02:09:07;;;;;;;1.50;1.00;;;12.10;99.90;;;;;;5018599;28;20674;-66
2023/01/15 02:11:34;;;;;;;1.77;0.97;;;12.00;99.90;;;;;;5015733;28;20460;-67
2023/01/15 02:14:19;;;;;;;1.70;1.10;;;12.10;99.90;;;;;;5011175;28;20217;-67
2023/01/15 02:17:26;;;;;;;3.10;0.97;;;12.00;99.90;;;;;;5016636;28;20474;-66
2023/01/15 02:20:04;;;;;;;1.60;1.00;;;12.00;99.90;;;;;;5013760;28;20518;-67
2023/01/15 02:22:58;;;;;;;1.57;1.10;;;12.00;99.90;;;;;;5018789;28;20439;-68
2023/01/15 02:25:31;;;;;;;1.40;1.00;;;11.90;99.90;;;;;;5018958;28;20471;-67
2023/01/15 02:28:18;;;;;;;1.60;1.00;;;12.00;99.90;;;;;;5019090;28;20450;-67
2023/01/15 02:30:47;;;;;;;2.70;1.10;;;12.00;99.90;;;;;;5017641;28;20461;-67
2023/01/15 02:33:45;;;;;;;1.50;1.00;;;12.00;99.90;;;;;;5017987;28;20458;-67
2023/01/15 02:36:13;;;;;;;1.83;1.03;;;12.00;99.90;;;;;;5014338;28;21277;-67
2023/01/15 02:38:43;;;;;;;1.50;0.90;;;12.00;99.90;;;;;;5020929;28;21075;-67
2023/01/15 02:41:16;;;;;;;2.00;1.20;;;12.00;99.90;;;;;;5023561;28;20446;-68
2023/01/15 02:43:47;;;;;;;3.43;1.03;;;12.00;99.90;;;;;;5022535;28;20438;-67
2023/01/15 02:46:15;;;;;;;1.50;1.00;;;12.00;99.90;;;;;;5019165;28;20490;-67
2023/01/15 02:48:45;;;;;;;1.50;0.90;;;12.10;99.90;;;;;;5018387;28;20423;-68
2023/01/15 02:51:14;;;;;;;4.80;1.10;;;12.10;99.90;;;;;;5020210;28;20585;-67
2023/01/15 02:53:43;;;;;;;1.50;0.90;;;12.20;99.90;;;;;;5020016;28;20464;-67
2023/01/15 02:56:15;;;;;;;1.50;1.00;;;12.20;99.90;;;;;;5018845;28;20553;-67
2023/01/15 02:58:43;;;;;;;2.00;1.30;;;12.20;99.90;;;;;;5021495;28;20419;-67
2023/01/15 03:01:13;;;;;;;1.70;0.93;;;12.30;99.90;;;;;;5018055;28;20780;-67
2023/01/15 03:03:54;;;;;;;2.63;1.93;;;12.30;99.90;;;;;;5017732;28;20837;-68
2023/01/15 03:06:38;;;;;;;1.90;1.30;;;12.30;99.90;;;;;;5020701;28;20949;-68
2023/01/15 03:09:05;;;;;;;1.77;1.10;;;12.40;99.90;;;;;;5018186;28;20447;-68
2023/01/15 03:11:38;;;;;;;1.77;1.13;;;12.50;99.90;;;;;;5017378;28;20474;-67
2023/01/15 03:14:13;;;;;;;1.80;1.10;;;12.60;99.90;;;;;;5016759;28;20554;-68
2023/01/15 03:16:52;;;;;;;1.83;1.17;;;12.60;99.90;;;;;;5019418;28;20453;-68
2023/01/15 03:19:29;;;;;;;1.80;1.07;;;12.60;99.90;;;;;;5015665;28;20560;-67
2023/01/15 03:22:08;;;;;;;2.53;1.00;;;12.70;99.90;;;;;;5017338;28;20471;-67
2023/01/15 03:24:43;;;;;;;1.53;0.90;;;12.70;99.90;;;;;;5019060;28;20802;-67
2023/01/15 03:27:09;;;;;;;1.50;1.00;;;12.70;99.90;;;;;;5015086;28;20450;-67
2023/01/15 03:29:43;;;;;;;1.40;0.90;;;12.80;99.90;;;;;;5012241;28;20451;-67
2023/01/15 03:32:09;;;;;;;1.40;0.90;;;12.80;99.90;;;;;;5020139;28;20422;-67
2023/01/15 03:34:44;;;;;;;1.60;1.00;;;12.80;99.90;;;;;;5017769;28;20463;-67
2023/01/15 03:37:10;;;;;;;1.73;1.00;;;12.90;99.90;;;;;;5016716;28;22137;-67
2023/01/15 03:39:37;;;;;;;1.50;1.00;;;12.90;99.90;;;;;;5019052;28;20435;-67
2023/01/15 03:42:25;;;;;;;1.50;0.90;;;12.90;99.90;;;;;;5017460;28;20475;-67
2023/01/15 03:45:02;;;;;;;1.60;1.00;;;12.90;99.90;;;;;;5017610;28;20533;-67
2023/01/15 03:47:55;;;;;;;1.60;1.10;;;12.80;99.90;;;;;;5012534;28;20451;-66
2023/01/15 03:50:47;;;;;;;1.80;1.00;;;12.80;99.90;;;;;;5014864;28;20477;-67
2023/01/15 03:53:20;;;;;;;1.87;1.20;;;12.80;99.90;;;;;;5014019;28;20447;-67
2023/01/15 03:55:53;;;;;;;1.50;0.90;;;12.70;99.90;;;;;;5017777;28;20575;-67
2023/01/15 03:58:35;;;;;;;1.50;0.90;;;12.60;99.90;;;;;;5009218;28;20975;-66
2023/01/15 04:01:04;;;;;;;1.80;1.00;;;12.50;99.90;;;;;;5012430;28;20528;-67
2023/01/15 04:03:32;;;;;;;2.37;1.00;;;12.20;99.90;;;;;;5012347;28;20439;-67
2023/01/15 04:06:00;;;;;;;2.17;1.00;;;12.20;99.90;;;;;;5014413;28;21535;-67
2023/01/15 04:08:30;;;;;;;1.63;1.00;;;12.20;99.90;;;;;;5018392;28;20435;-67
2023/01/15 04:11:00;;;;;;;1.40;0.90;;;12.00;99.90;;;;;;5014158;28;20798;-67
2023/01/15 04:13:27;;;;;;;1.60;1.00;;;11.70;99.90;;;;;;5013721;28;21078;-67
2023/01/15 04:15:53;;;;;;;1.40;1.00;;;11.70;99.90;;;;;;5013036;28;20490;-67
2023/01/15 04:18:19;;;;;;;1.50;0.90;;;11.80;99.90;;;;;;5010733;28;20439;-67
2023/01/15 04:20:45;;;;;;;1.40;0.80;;;11.90;99.90;;;;;;5015503;28;20842;-66
2023/01/15 04:23:10;;;;;;;1.50;0.90;;;11.90;99.90;;;;;;5017151;28;21058;-66
2023/01/15 04:25:36;;;;;;;1.30;0.90;;;11.80;99.90;;;;;;5015417;28;20463;-67
2023/01/15 04:28:02;;;;;;;1.50;0.80;;;11.70;99.90;;;;;;5015261;28;20181;-66
2023/01/15 04:30:28;;;;;;;2.47;0.90;;;11.70;99.90;;;;;;5013742;28;20439;-67
2023/01/15 04:32:53;;;;;;;1.30;0.80;;;11.80;99.90;;;;;;5014632;28;20196;-66
2023/01/15 04:35:19;;;;;;;1.37;0.90;;;11.80;99.90;;;;;;5013556;28;20220;-66
2023/01/15 04:37:45;;;;;;;2.23;1.00;;;11.80;99.90;;;;;;5018665;28;20221;-67
2023/01/15 04:44:05;;;;;;;1.47;0.90;;;11.70;99.90;;;;;;5020071;28;20587;-66
2023/01/15 04:45:45;;;;;;;2.13;0.90;;;11.50;99.90;;;;;;5012112;28;20520;-67
2023/01/15 04:48:11;;;;;;;1.47;0.90;;;11.50;99.90;;;;;;5015877;28;20450;-67
2023/01/15 04:50:37;;;;;;;1.90;1.00;;;11.40;99.90;;;;;;5013117;28;20462;-66
2023/01/15 04:53:03;;;;;;;4.43;1.00;;;11.30;99.90;;;;;;5014866;28;20450;-67
2023/01/15 04:55:30;;;;;;;1.57;0.90;;;11.30;99.90;;;;;;5016137;28;20500;-66
2023/01/15 04:57:55;;;;;;;1.40;0.90;;;11.30;99.90;;;;;;5014357;28;20443;-66
2023/01/15 05:00:22;;;;;;;1.40;1.00;;;11.00;99.90;;;;;;5013230;28;20201;-66
2023/01/15 05:02:48;;;;;;;1.50;0.90;;;10.90;99.90;;;;;;5015304;28;20326;-66
2023/01/15 05:05:13;;;;;;;1.40;0.90;;;11.00;99.90;;;;;;5014237;28;21215;-66
2023/01/15 05:07:39;;;;;;;1.40;0.90;;;11.10;99.90;;;;;;5015242;28;20475;-67
2023/01/15 05:10:05;;;;;;;1.50;0.90;;;10.70;99.90;;;;;;5017982;28;20192;-67
2023/01/15 05:12:30;;;;;;;1.40;0.90;;;10.80;99.90;;;;;;5019571;28;20194;-66
2023/01/15 05:14:56;;;;;;;1.40;0.90;;;10.70;99.90;;;;;;5011203;28;21046;-66
2023/01/15 05:17:21;;;;;;;1.83;1.00;;;10.70;99.90;;;;;;5008337;28;20787;-67
2023/01/15 05:19:47;;;;;;;1.50;0.90;;;10.80;99.90;;;;;;5014159;28;20193;-66
2023/01/15 05:22:12;;;;;;;1.50;0.90;;;10.80;99.90;;;;;;5012463;28;20196;-67
2023/01/15 05:24:38;;;;;;;1.40;0.80;;;10.70;99.90;;;;;;5012614;28;20326;-66
2023/01/15 05:27:04;;;;;;;1.40;0.90;;;10.60;99.90;;;;;;5016339;28;20250;-67
2023/01/15 05:29:30;;;;;;;1.60;0.90;;;10.60;99.90;;;;;;5013524;28;20219;-66
2023/01/15 05:31:56;;;;;;;1.40;1.00;;;10.60;99.90;;;;;;5013694;28;20459;-67
2023/01/15 05:34:22;;;;;;;1.33;0.80;;;10.60;99.90;;;;;;5014077;28;20472;-67
2023/01/15 05:36:48;;;;;;;2.00;0.97;;;10.40;99.90;;;;;;5018090;28;20456;-66
2023/01/15 05:39:13;;;;;;;1.60;0.80;;;10.40;99.90;;;;;;5018062;28;20197;-67
2023/01/15 05:41:48;;;;;;;1.33;0.80;;;10.30;99.90;;;;;;5022490;28;20187;-67
2023/01/15 05:44:22;;;;;;;1.40;0.90;;;10.30;99.90;;;;;;5020815;28;20722;-66
2023/01/15 05:46:49;;;;;;;1.40;1.00;;;10.10;99.90;;;;;;5018951;28;20543;-66
2023/01/15 05:49:18;;;;;;;1.70;1.00;;;9.90;99.90;;;;;;5020333;28;20462;-67
2023/01/15 05:51:45;;;;;;;1.73;0.90;;;9.90;99.90;;;;;;5023150;28;20454;-67
2023/01/15 05:54:16;;;;;;;1.50;0.90;;;9.80;99.90;;;;;;5020575;28;20459;-67
2023/01/15 05:56:42;;;;;;;1.40;0.90;;;9.80;99.90;;;;;;5019155;28;20892;-67
2023/01/15 05:59:08;;;;;;;4.23;0.90;;;9.80;99.90;;;;;;5017460;28;21130;-66
2023/01/15 06:01:34;;;;;;;1.40;0.80;;;9.60;99.90;;;;;;5019264;28;20772;-67
2023/01/15 06:04:01;;;;;;;1.50;0.93;;;9.60;99.90;;;;;;5019928;28;20834;-66
2023/01/15 06:06:27;;;;;;;1.40;0.90;;;9.50;99.90;;;;;;5020388;28;20822;-66
2023/01/15 06:08:53;;;;;;;1.50;0.90;;;9.60;99.90;;;;;;5020370;28;20438;-67
2023/01/15 06:11:18;;;;;;;1.83;0.90;;;9.40;99.90;;;;;;5020811;28;20189;-67
2023/01/15 06:13:44;;;;;;;1.50;0.90;;;9.50;99.90;;;;;;5019842;28;20208;-67
2023/01/15 06:16:10;;;;;;;1.40;0.90;;;9.30;99.90;;;;;;5015849;28;20691;-66
2023/01/15 06:18:37;;;;;;;1.40;0.90;;;9.20;99.90;;;;;;5016513;28;20177;-67
2023/01/15 06:21:07;;;;;;;1.40;0.90;;;9.20;99.90;;;;;;5017681;28;20442;-65
2023/01/15 06:23:37;;;;;;;2.00;0.90;;;9.10;99.90;;;;;;5020631;28;20876;-65
2023/01/15 06:26:05;;;;;;;1.40;0.80;;;9.10;99.90;;;;;;5021872;28;20465;-68
2023/01/15 06:28:31;;;;;;;1.40;0.90;;;9.10;99.90;;;;;;5014633;28;20847;-66
2023/01/15 06:30:56;;;;;;;1.50;1.00;;;9.10;99.90;;;;;;5017352;28;20447;-66
2023/01/15 06:33:22;;;;;;;2.90;1.00;;;9.00;99.90;;;;;;5016559;28;20912;-66
2023/01/15 06:35:48;;;;;;;1.50;1.00;;;8.90;99.90;;;;;;5021033;28;20299;-66
2023/01/15 06:38:14;;;;;;;1.40;0.90;;;8.80;99.90;;;;;;5014349;28;20863;-66
2023/01/15 06:40:39;;;;;;;3.03;0.97;;;8.80;99.90;;;;;;5018968;28;20192;-66
2023/01/15 06:48:34;;;;;;;1.40;0.90;;;8.80;99.90;;;;;;5018730;28;20954;-66
2023/01/15 06:51:00;;;;;;;1.77;1.03;;;8.80;99.90;;;;;;5019393;28;20438;-66
2023/01/15 06:53:26;;;;;;;1.53;1.00;;;8.80;99.90;;;;;;5020291;28;20195;-66
2023/01/15 06:55:51;;;;;;;1.50;0.97;;;8.80;99.90;;;;;;5019318;28;20196;-66
2023/01/15 06:58:17;;;;;;;3.50;0.90;;;8.80;99.90;;;;;;5016630;28;20184;-66
2023/01/15 07:00:44;;;;;;;1.40;0.80;;;8.90;99.90;;;;;;5018728;28;20185;-68
2023/01/15 07:03:13;;;;;;;2.00;0.97;;;8.90;99.90;;;;;;5017711;28;20180;-67
2023/01/15 07:05:38;;;;;;;1.60;1.00;;;8.80;99.90;;;;;;5020217;28;21182;-67
2023/01/15 07:08:04;;;;;;;1.70;1.00;;;8.70;99.90;;;;;;5015101;28;20443;-67
2023/01/15 07:10:30;;;;;;;1.60;0.87;;;8.80;99.90;;;;;;5022564;28;20451;-67
2023/01/15 07:12:55;;;;;;;1.40;0.90;;;8.80;99.90;;;;;;5018303;28;20661;-67
2023/01/15 07:15:21;;;;;;;1.70;1.00;;;8.80;99.90;;;;;;5019467;28;20224;-67
2023/01/15 07:17:46;;;;;;;1.40;0.90;;;8.70;99.90;;;;;;5017116;28;20188;-69
2023/01/15 07:20:12;;;;;;;1.50;0.90;;;8.70;99.90;;;;;;5019589;28;20219;-67
2023/01/15 07:22:38;;;;;;;1.50;1.00;;;8.70;99.90;;;;;;5020417;28;20617;-67
2023/01/15 07:25:04;;;;;;;3.47;1.20;;;8.80;99.90;;;;;;5016922;28;20200;-67
2023/01/15 07:27:29;;;;;;;1.50;1.10;;;8.80;99.90;;;;;;5019400;28;20378;-67
2023/01/15 07:29:55;;;;;;;1.40;0.90;;;8.80;99.90;;;;;;5020128;28;20437;-67
2023/01/15 07:32:20;;;;;;;1.50;1.00;;;8.80;99.90;;;;;;5015516;28;20192;-67
2023/01/15 07:34:46;;;;;;;1.93;1.03;;;8.80;99.90;;;;;;5018564;28;20978;-67
2023/01/15 07:37:11;;;;;;;1.60;0.97;;;8.80;99.90;;;;;;5015403;28;20259;-66
2023/01/15 07:39:37;;;;;;;1.40;0.90;;;8.50;99.90;;;;;;5012476;28;20627;-66
2023/01/15 07:50:21;;;;;;;1.40;0.90;;;8.50;99.90;;;;;;5019376;28;20488;-66
2023/01/15 07:52:47;;;;;;;1.80;1.03;;;8.40;99.90;;;;;;5015841;28;20501;-66
2023/01/15 07:55:13;;;;;;;2.23;1.00;;;8.30;99.90;;;;;;5016441;28;20459;-66
2023/01/15 07:57:40;;;;;;;1.70;1.03;;;8.30;99.90;;;;;;5019683;28;20205;-66
2023/01/15 08:00:08;;;;;;;1.90;1.40;;;8.20;99.90;;;;;;5013895;28;20442;-66
2023/01/15 08:02:33;;;;;;;2.43;1.00;;;8.20;99.90;;;;;;5004331;28;20442;-66
2023/01/15 08:04:59;;;;;;;2.10;1.10;;;8.20;99.90;;;;;;5005966;28;20784;-66
2023/01/15 08:07:25;;;;;;;2.60;1.20;;;8.30;99.90;;;;;;5009920;28;20645;-66
2023/01/15 08:09:51;;;;;;;1.43;0.90;;;8.40;99.90;;;;;;5011739;28;20180;-66
2023/01/15 08:15:12;;;;;;;1.40;0.90;;;8.50;99.90;;;;;;5015498;28;20219;-66
2023/01/15 08:17:49;;;;;;;1.40;1.00;;;8.60;99.90;;;;;;5012819;28;20976;-65
2023/01/15 08:20:19;;;;;;;1.70;0.90;;;8.50;99.90;;;;;;5013663;28;20533;-65
2023/01/15 08:22:46;;;;;;;1.53;1.00;;;8.60;99.90;;;;;;5012955;28;20445;-66
2023/01/15 08:25:14;;;;;;;1.60;1.00;;;8.50;99.90;;;;;;5016741;28;20784;-65
2023/01/15 08:27:40;;;;;;;1.40;0.90;;;8.50;99.90;;;;;;5012543;28;20443;-65
2023/01/15 08:30:08;;;;;;;1.40;0.83;;;8.50;99.90;;;;;;5014095;28;20492;-65
2023/01/15 08:32:34;;;;;;;1.80;1.00;;;8.30;99.90;;;;;;5013043;28;21119;-66
2023/01/15 08:35:00;;;;;;;1.50;0.97;;;8.40;99.90;;;;;;5014927;28;20486;-65
2023/01/15 08:37:26;;;;;;;1.40;1.00;;;8.40;99.90;;;;;;5010027;28;21061;-66
2023/01/15 08:39:52;;;;;;;2.20;1.43;;;8.40;99.90;;;;;;5006656;28;20192;-66
2023/01/15 08:42:20;;;;;;;1.60;1.13;;;8.40;99.90;;;;;;5014872;28;20185;-65
2023/01/15 08:44:46;;;;;;;1.67;1.00;;;8.30;99.90;;;;;;5011791;28;20951;-65
2023/01/15 08:47:12;;;;;;;1.67;1.10;;;8.20;99.90;;;;;;5008338;28;20466;-66
2023/01/15 08:49:38;;;;;;;1.70;1.20;;;8.10;99.90;;;;;;5008691;28;20450;-65
2023/01/15 08:52:03;;;;;;;2.63;1.20;;;8.00;99.90;;;;;;5013768;28;20192;-66
2023/01/15 08:54:29;;;;;;;1.60;1.00;;;8.00;99.90;;;;;;5009568;28;20222;-66
2023/01/15 08:56:55;;;;;;;1.60;1.10;;;8.10;99.90;;;;;;5011579;28;20304;-66
2023/01/15 08:59:21;;;;;;;1.50;0.83;;;8.00;99.90;;;;;;5014649;28;21094;-65
2023/01/15 09:01:47;;;;;;;2.37;1.20;;;8.10;99.90;;;;;;5012252;28;20196;-65
2023/01/15 09:04:14;;;;;;;1.90;1.20;;;8.10;99.90;;;;;;5013738;28;20186;-66
2023/01/15 09:06:39;;;;;;;2.27;1.17;;;8.10;99.90;;;;;;5018687;28;20960;-65
2023/01/15 09:09:05;;;;;;;1.50;1.10;;;8.10;99.90;;;;;;5019516;28;20517;-66
2023/01/15 09:11:30;;;;;;;2.40;1.20;;;8.20;99.90;;;;;;5017292;28;20267;-66
2023/01/15 09:13:56;;;;;;;1.70;1.20;;;8.00;99.90;;;;;;5017876;28;20209;-65
2023/01/15 09:16:22;;;;;;;1.70;1.03;;;8.00;99.90;;;;;;5015119;28;20208;-66
2023/01/15 09:18:47;;;;;;;3.00;1.30;;;8.10;99.90;;;;;;5018591;28;20398;-66
2023/01/15 09:21:13;;;;;;;2.50;1.50;;;8.10;99.90;;;;;;5018034;28;20188;-66
2023/01/15 09:23:38;;;;;;;2.03;1.13;;;8.10;99.90;;;;;;5016595;28;20669;-66
2023/01/15 09:26:06;;;;;;;1.60;0.90;;;8.00;99.90;;;;;;5022226;28;20196;-66
2023/01/15 09:28:33;;;;;;;1.67;1.17;;;8.00;99.90;;;;;;5009774;28;20178;-67
2023/01/15 09:30:59;;;;;;;2.00;1.20;;;7.90;99.90;;;;;;5012425;28;20434;-67
2023/01/15 09:33:25;;;;;;;1.93;1.10;;;7.90;99.90;;;;;;5010463;28;20447;-67
2023/01/15 09:35:51;;;;;;;2.50;1.30;;;7.90;99.90;;;;;;5017014;28;20477;-66
2023/01/15 09:38:19;;;;;;;1.60;1.00;;;7.80;99.90;;;;;;5014548;28;20530;-67
2023/01/15 09:40:58;;;;;;;1.70;1.00;;;7.70;99.90;;;;;;5013773;28;20514;-66
2023/01/15 09:43:59;;;;;;;1.90;1.20;;;7.80;99.90;;;;;;5013582;28;20438;-66
2023/01/15 09:46:44;;;;;;;2.63;1.60;;;7.80;99.90;;;;;;5015380;28;20458;-66
2023/01/15 09:49:13;;;;;;;2.30;1.20;;;7.80;99.90;;;;;;5014103;28;21725;-66
2023/01/15 09:52:24;;;;;;;3.30;1.67;;;7.70;99.90;;;;;;5017166;28;20442;-65
2023/01/15 09:55:08;;;;;;;1.60;1.10;;;7.80;99.90;;;;;;5016805;28;20470;-66
2023/01/15 09:57:35;;;;;;;2.57;1.20;;;7.70;99.90;;;;;;5014079;28;20494;-65
2023/01/15 10:00:04;;;;;;;1.40;1.00;;;7.70;99.90;;;;;;5016692;28;20431;-66
2023/01/15 10:02:53;;;;;;;1.60;1.10;;;7.70;99.90;;;;;;5011124;28;20435;-67
2023/01/15 10:05:29;;;;;;;3.20;1.50;;;7.70;99.90;;;;;;5012621;28;20528;-67
2023/01/15 10:08:04;;;;;;;2.37;1.23;;;7.50;99.90;;;;;;5009872;28;20521;-68
2023/01/15 10:10:34;;;;;;;2.83;1.20;;;7.60;99.90;;;;;;5009634;28;20465;-67
2023/01/15 10:13:16;;;;;;;2.23;1.20;;;7.60;99.90;;;;;;5002798;28;20512;-65
2023/01/15 10:15:45;;;;;;;2.00;1.50;;;7.40;99.90;;;;;;5001385;28;20473;-67
2023/01/15 10:18:19;;;;;;;2.40;1.10;;;7.50;99.90;;;;;;5006968;28;20438;-66
2023/01/15 10:20:58;;;;;;;1.50;0.90;;;7.40;99.90;;;;;;5007649;28;20562;-68
2023/01/15 10:23:25;;;;;;;1.40;1.00;;;7.50;99.90;;;;;;5008615;28;20818;-66
2023/01/15 10:26:00;;;;;;;1.53;1.10;;;7.50;99.90;;;;;;5009647;28;20497;-66
2023/01/15 10:28:32;;;;;;;1.40;0.90;;;7.30;99.90;;;;;;5011924;28;20446;-66
2023/01/15 10:31:21;;;;;;;1.77;1.20;;;7.20;99.90;;;;;;5010569;28;20663;-66
2023/01/15 10:34:04;;;;;;;1.50;1.10;;;7.30;99.90;;;;;;5010509;28;20442;-66
2023/01/15 10:36:42;;;;;;;1.90;1.30;;;7.30;99.90;;;;;;5012806;28;20480;-66
2023/01/15 10:39:18;;;;;;;2.10;1.20;;;7.40;99.90;;;;;;5010144;28;20450;-66
2023/01/15 10:42:02;;;;;;;1.80;1.03;;;7.30;99.90;;;;;;5014720;28;20905;-66
2023/01/15 10:44:48;;;;;;;2.53;1.13;;;7.30;99.90;;;;;;5011214;28;20443;-66
2023/01/15 10:47:18;;;;;;;2.43;1.20;;;7.30;99.90;;;;;;5012186;28;20494;-66
2023/01/15 10:49:45;;;;;;;2.70;1.50;;;7.20;99.90;;;;;;5017756;28;20541;-66
2023/01/15 10:52:26;;;;;;;2.07;1.20;;;7.20;99.90;;;;;;5006951;28;20849;-66
2023/01/15 10:55:30;;;;;;;3.50;1.30;;;7.20;99.90;;;;;;5011348;28;20758;-67
2023/01/15 10:58:06;;;;;;;2.33;1.57;;;7.20;99.90;;;;;;5000485;28;20451;-67
2023/01/15 11:00:31;;;;;;;2.23;1.10;;;7.10;99.90;;;;;;5013009;28;20450;-68
2023/01/15 11:03:07;;;;;;;1.73;1.20;;;7.00;99.90;;;;;;5005947;28;20517;-67
2023/01/15 11:05:34;;;;;;;1.50;1.00;;;7.00;99.90;;;;;;5012304;28;20435;-66
2023/01/15 11:08:04;;;;;;;2.10;1.30;;;7.00;99.90;;;;;;5011471;28;20485;-66
2023/01/15 11:10:31;;;;;;;2.53;1.40;;;6.80;99.90;;;;;;5009722;28;20471;-67
2023/01/15 11:21:24;;;;;;;1.80;1.20;;;6.80;99.90;;;;;;5015736;28;21012;-66
2023/01/15 11:23:53;;;;;;;1.63;1.03;;;6.70;99.90;;;;;;5016464;28;20454;-66
2023/01/15 11:26:23;;;;;;;2.13;1.00;;;6.70;99.90;;;;;;5016090;28;20861;-66
2023/01/15 11:28:49;;;;;;;3.60;1.17;;;6.70;99.90;;;;;;5014589;28;20423;-66
2023/01/15 11:31:15;;;;;;;1.40;1.00;;;6.70;99.90;;;;;;5014579;28;20427;-66
2023/01/15 11:33:57;;;;;;;2.17;1.20;;;6.60;99.90;;;;;;5015004;28;21004;-66
2023/01/15 11:36:25;;;;;;;1.77;1.00;;;6.70;99.90;;;;;;5012635;28;20470;-66
2023/01/15 11:38:51;;;;;;;2.10;1.10;;;6.60;99.90;;;;;;5010740;28;21105;-67
2023/01/15 11:52:59;;;;;;;2.07;1.40;;;6.80;99.90;;;;;;5015150;28;21405;-66
2023/01/15 11:55:26;;;;;;;2.67;1.40;;;6.80;99.90;;;;;;5012616;28;20463;-66
2023/01/15 11:57:52;;;;;;;1.77;1.00;;;6.80;99.90;;;;;;5013207;28;20396;-65
2023/01/15 12:00:43;;;;;;;3.40;1.40;;;6.80;99.90;;;;;;5018654;28;20804;-66
2023/01/15 12:03:16;;;;;;;2.33;1.50;;;6.80;99.90;;;;;;5010733;28;20435;-66
2023/01/15 12:05:52;;;;;;;2.30;1.43;;;6.80;99.90;;;;;;5012684;28;20970;-66
2023/01/15 12:08:45;;;;;;;1.87;1.20;;;6.80;99.90;;;;;;5015498;28;20450;-66
2023/01/15 12:11:46;;;;;;;2.53;1.20;;;6.90;99.90;;;;;;5014139;28;20443;-66
2023/01/15 12:14:24;;;;;;;2.80;1.50;;;7.00;99.90;;;;;;4987696;28;20567;-67
2023/01/15 12:16:58;;;;;;;5.30;1.20;;;7.10;99.90;;;;;;5013856;28;20458;-66
2023/01/15 12:19:40;;;;;;;3.83;1.43;;;7.10;99.90;;;;;;5013251;28;20452;-65
2023/01/15 12:22:12;;;;;;;3.00;1.70;;;7.20;99.90;;;;;;5016370;28;20447;-66
2023/01/15 12:25:02;;;;;;;2.37;1.37;;;7.20;99.90;;;;;;5016916;28;20469;-66
2023/01/15 12:27:52;;;;;;;6.20;1.80;;;7.10;99.90;;;;;;5013049;28;20525;-66
2023/01/15 12:30:53;;;;;;;2.37;1.10;;;7.20;99.90;;;;;;5014910;28;20455;-66
2023/01/15 12:33:29;;;;;;;4.37;1.73;;;7.10;99.90;;;;;;4987599;28;20443;-67
2023/01/15 12:36:13;;;;;;;2.57;1.80;;;7.20;99.90;;;;;;5008223;28;20481;-67
2023/01/15 12:38:47;;;;;;;3.00;1.27;;;7.20;99.90;;;;;;5008763;28;20445;-67
2023/01/15 12:45:03;;;;;;;2.37;1.20;;;7.70;99.90;;;;;;5010776;28;20430;-67
2023/01/15 12:47:31;;;;;;;3.83;1.47;;;8.00;99.90;;;;;;5004742;28;20455;-67
2023/01/15 12:50:18;;;;;;;8.63;1.67;;;8.30;99.90;;;;;;5005903;28;20856;-67
2023/01/15 12:52:47;;;;;;;4.30;1.90;;;8.50;99.90;;;;;;5013030;28;20427;-68
2023/01/15 12:55:22;;;;;;;2.53;1.40;;;8.60;99.90;;;;;;5010858;28;20838;-66
2023/01/15 12:57:55;;;;;;;2.30;1.23;;;8.80;99.90;;;;;;5012196;28;20461;-66
2023/01/15 13:00:40;;;;;;;3.23;1.70;;;8.90;99.90;;;;;;5009352;28;20415;-67
2023/01/15 13:03:38;;;;;;;4.20;2.93;;;9.00;99.90;;;;;;5007399;28;20438;-67
2023/01/15 13:06:07;;;;;;;4.47;1.60;;;9.40;99.90;;;;;;5016074;28;20450;-67
2023/01/15 13:09:04;;;;;;;3.17;1.33;;;9.30;99.90;;;;;;5013687;28;20456;-67
2023/01/15 13:11:30;;;;;;;4.23;1.50;;;9.40;99.90;;;;;;5017299;28;20430;-66
2023/01/15 13:13:58;;;;;;;2.53;1.27;;;9.30;99.90;;;;;;5010091;28;20438;-67
2023/01/15 13:16:39;;;;;;;2.70;1.50;;;9.40;99.90;;;;;;5016807;28;21056;-67
2023/01/15 13:19:20;;;;;;;2.50;1.47;;;9.30;99.90;;;;;;5012340;28;20444;-68
2023/01/15 13:21:51;;;;;;;2.50;1.60;;;9.20;99.90;;;;;;5017946;28;20499;-68
2023/01/15 13:24:40;;;;;;;3.63;1.57;;;9.20;99.90;;;;;;5016981;28;20936;-67
2023/01/15 13:27:33;;;;;;;5.10;1.70;;;9.20;99.90;;;;;;5012833;28;20450;-66
2023/01/15 13:30:21;;;;;;;2.37;1.20;;;9.10;99.90;;;;;;5011669;28;20856;-67
2023/01/15 13:32:50;;;;;;;1.93;1.30;;;9.20;99.90;;;;;;5010109;28;20500;-67
2023/01/15 13:35:30;;;;;;;2.83;1.63;;;9.30;99.90;;;;;;5013722;28;20957;-67
2023/01/15 13:38:02;;;;;;;3.47;1.40;;;9.30;99.90;;;;;;5010827;28;20428;-67
2023/01/15 13:40:29;;;;;;;6.27;1.60;;;9.10;99.90;;;;;;5012393;28;20940;-66
2023/01/15 13:42:55;;;;;;;5.73;1.73;;;9.30;99.90;;;;;;5010478;28;20438;-67
2023/01/15 13:45:31;;;;;;;3.10;1.40;;;9.40;99.90;;;;;;5017627;28;20420;-68
2023/01/15 13:48:12;;;;;;;2.17;1.23;;;9.30;99.90;;;;;;5013332;28;20473;-67
2023/01/15 13:50:59;;;;;;;1.90;1.30;;;9.10;99.90;;;;;;5002135;28;20931;-67
2023/01/15 13:53:33;;;;;;;3.50;1.53;;;9.10;99.90;;;;;;5010788;28;20505;-69
2023/01/15 13:56:04;;;;;;;3.70;1.50;;;8.90;99.90;;;;;;5016618;28;20467;-68
2023/01/15 13:58:33;;;;;;;1.90;1.20;;;8.70;99.90;;;;;;5018429;28;20446;-67
2023/01/15 14:01:20;;;;;;;3.00;1.30;;;8.80;99.90;;;;;;5013352;28;20426;-66